sensor_id;sensor_type;location;lat;lon;timestamp;P1;durP1;ratioP1;P2;durP2;ratioP2
40995;SDS011;26723;57.478;12.066;2022-08-04T00:06:20;1.95;;;1.50;;
40995;SDS011;26723;57.478;12.066;2022-08-04T00:10:40;1.50;;;1.40;;
40995;SDS011;26723;57.478;12.066;2022-08-04T00:14:44;1.77;;;1.25;;
40995;SDS011;26723;57.478;12.066;2022-08-04T00:18:48;2.60;;;1.70;;
40995;SDS011;26723;57.478;12.066;2022-08-04T00:22:59;1.60;;;1.50;;
40995;SDS011;26723;57.478;12.066;2022-08-04T00:26:10;1.45;;;1.35;;
40995;SDS011;26723;57.478;12.066;2022-08-04T00:29:32;3.15;;;1.60;;
40995;SDS011;26723;57.478;12.066;2022-08-04T00:33:11;3.00;;;1.40;;
40995;SDS011;26723;57.478;12.066;2022-08-04T00:39:05;2.25;;;1.67;;
40995;SDS011;26723;57.478;12.066;2022-08-04T00:40:43;1.38;;;1.25;;
40995;SDS011;26723;57.478;12.066;2022-08-04T00:44:18;1.58;;;1.48;;
40995;SDS011;26723;57.478;12.066;2022-08-04T00:48:01;2.03;;;1.60;;
40995;SDS011;26723;57.478;12.066;2022-08-04T00:51:33;1.23;;;1.23;;
40995;SDS011;26723;57.478;12.066;2022-08-04T00:54:56;1.70;;;1.60;;
40995;SDS011;26723;57.478;12.066;2022-08-04T00:59:09;1.50;;;1.40;;
40995;SDS011;26723;57.478;12.066;2022-08-04T01:03:07;1.38;;;1.27;;
40995;SDS011;26723;57.478;12.066;2022-08-04T01:06:51;2.05;;;1.40;;
40995;SDS011;26723;57.478;12.066;2022-08-04T01:11:12;1.25;;;1.15;;
40995;SDS011;26723;57.478;12.066;2022-08-04T01:14:50;1.83;;;1.73;;
40995;SDS011;26723;57.478;12.066;2022-08-04T01:18:32;2.97;;;1.60;;
40995;SDS011;26723;57.478;12.066;2022-08-04T01:22:21;1.85;;;1.35;;
40995;SDS011;26723;57.478;12.066;2022-08-04T01:30:42;1.90;;;1.70;;
40995;SDS011;26723;57.478;12.066;2022-08-04T01:34:10;1.38;;;1.27;;
40995;SDS011;26723;57.478;12.066;2022-08-04T01:37:35;1.83;;;1.35;;
40995;SDS011;26723;57.478;12.066;2022-08-04T01:41:30;1.45;;;1.35;;
40995;SDS011;26723;57.478;12.066;2022-08-04T01:45:13;1.55;;;1.38;;
40995;SDS011;26723;57.478;12.066;2022-08-04T01:48:35;2.30;;;1.27;;
40995;SDS011;26723;57.478;12.066;2022-08-04T01:52:46;2.25;;;1.75;;
40995;SDS011;26723;57.478;12.066;2022-08-04T01:56:05;1.70;;;1.60;;
40995;SDS011;26723;57.478;12.066;2022-08-04T01:59:46;1.73;;;1.60;;
40995;SDS011;26723;57.478;12.066;2022-08-04T02:03:15;2.05;;;1.75;;
40995;SDS011;26723;57.478;12.066;2022-08-04T02:06:59;1.30;;;1.30;;
40995;SDS011;26723;57.478;12.066;2022-08-04T02:10:28;2.42;;;1.50;;
40995;SDS011;26723;57.478;12.066;2022-08-04T02:13:52;1.23;;;1.20;;
40995;SDS011;26723;57.478;12.066;2022-08-04T02:17:21;1.70;;;1.60;;
40995;SDS011;26723;57.478;12.066;2022-08-04T02:20:59;1.90;;;1.80;;
40995;SDS011;26723;57.478;12.066;2022-08-04T02:24:15;1.50;;;1.40;;
40995;SDS011;26723;57.478;12.066;2022-08-04T02:31:22;2.08;;;1.58;;
40995;SDS011;26723;57.478;12.066;2022-08-04T02:34:56;1.88;;;1.33;;
40995;SDS011;26723;57.478;12.066;2022-08-04T02:38:34;1.50;;;1.40;;
40995;SDS011;26723;57.478;12.066;2022-08-04T02:42:12;2.03;;;1.85;;
40995;SDS011;26723;57.478;12.066;2022-08-04T02:45:40;1.65;;;1.55;;
40995;SDS011;26723;57.478;12.066;2022-08-04T02:49:04;2.20;;;1.52;;
40995;SDS011;26723;57.478;12.066;2022-08-04T02:52:52;2.38;;;1.70;;
40995;SDS011;26723;57.478;12.066;2022-08-04T02:56:02;1.50;;;1.50;;
40995;SDS011;26723;57.478;12.066;2022-08-04T02:59:37;1.65;;;1.55;;
40995;SDS011;26723;57.478;12.066;2022-08-04T03:03:06;3.10;;;1.80;;
40995;SDS011;26723;57.478;12.066;2022-08-04T03:06:33;2.90;;;2.65;;
40995;SDS011;26723;57.478;12.066;2022-08-04T03:26:44;2.38;;;1.88;;
40995;SDS011;26723;57.478;12.066;2022-08-04T03:30:16;3.67;;;1.80;;
40995;SDS011;26723;57.478;12.066;2022-08-04T03:34:25;1.98;;;1.88;;
40995;SDS011;26723;57.478;12.066;2022-08-04T03:42:09;2.45;;;2.25;;
40995;SDS011;26723;57.478;12.066;2022-08-04T04:01:22;5.45;;;2.20;;
40995;SDS011;26723;57.478;12.066;2022-08-04T04:05:56;1.80;;;1.70;;
40995;SDS011;26723;57.478;12.066;2022-08-04T04:10:06;2.05;;;1.85;;
40995;SDS011;26723;57.478;12.066;2022-08-04T04:18:28;2.90;;;2.28;;
40995;SDS011;26723;57.478;12.066;2022-08-04T04:22:12;1.90;;;1.80;;
40995;SDS011;26723;57.478;12.066;2022-08-04T04:26:03;2.53;;;2.17;;
40995;SDS011;26723;57.478;12.066;2022-08-04T04:29:59;1.98;;;1.88;;
40995;SDS011;26723;57.478;12.066;2022-08-04T04:33:24;1.88;;;1.70;;
40995;SDS011;26723;57.478;12.066;2022-08-04T04:37:00;2.85;;;1.80;;
40995;SDS011;26723;57.478;12.066;2022-08-04T04:40:40;2.15;;;1.90;;
40995;SDS011;26723;57.478;12.066;2022-08-04T04:44:40;1.98;;;1.65;;
40995;SDS011;26723;57.478;12.066;2022-08-04T04:48:44;1.92;;;1.83;;
40995;SDS011;26723;57.478;12.066;2022-08-04T04:52:05;2.25;;;2.00;;
40995;SDS011;26723;57.478;12.066;2022-08-04T04:55:44;2.40;;;2.20;;
40995;SDS011;26723;57.478;12.066;2022-08-04T04:59:10;2.00;;;1.90;;
40995;SDS011;26723;57.478;12.066;2022-08-04T05:06:50;2.17;;;1.80;;
40995;SDS011;26723;57.478;12.066;2022-08-04T05:16:01;2.42;;;1.80;;
40995;SDS011;26723;57.478;12.066;2022-08-04T05:19:41;2.60;;;1.65;;
40995;SDS011;26723;57.478;12.066;2022-08-04T05:27:04;1.77;;;1.67;;
40995;SDS011;26723;57.478;12.066;2022-08-04T05:30:36;2.15;;;1.92;;
40995;SDS011;26723;57.478;12.066;2022-08-04T05:35:02;2.10;;;1.83;;
40995;SDS011;26723;57.478;12.066;2022-08-04T05:38:59;3.53;;;1.98;;
40995;SDS011;26723;57.478;12.066;2022-08-04T05:42:15;1.77;;;1.67;;
40995;SDS011;26723;57.478;12.066;2022-08-04T05:45:29;2.55;;;2.10;;
40995;SDS011;26723;57.478;12.066;2022-08-04T05:48:45;2.20;;;1.83;;
40995;SDS011;26723;57.478;12.066;2022-08-04T05:51:57;1.92;;;1.80;;
40995;SDS011;26723;57.478;12.066;2022-08-04T05:55:09;2.20;;;2.10;;
40995;SDS011;26723;57.478;12.066;2022-08-04T05:58:39;1.95;;;1.85;;
40995;SDS011;26723;57.478;12.066;2022-08-04T06:01:49;2.05;;;1.90;;
40995;SDS011;26723;57.478;12.066;2022-08-04T06:05:03;2.10;;;1.95;;
40995;SDS011;26723;57.478;12.066;2022-08-04T06:08:13;1.80;;;1.70;;
40995;SDS011;26723;57.478;12.066;2022-08-04T06:11:23;2.47;;;2.28;;
40995;SDS011;26723;57.478;12.066;2022-08-04T06:14:37;1.90;;;1.48;;
40995;SDS011;26723;57.478;12.066;2022-08-04T06:17:48;2.00;;;1.80;;
40995;SDS011;26723;57.478;12.066;2022-08-04T06:21:19;2.85;;;2.05;;
40995;SDS011;26723;57.478;12.066;2022-08-04T06:24:29;2.50;;;2.20;;
40995;SDS011;26723;57.478;12.066;2022-08-04T06:27:41;2.05;;;1.77;;
40995;SDS011;26723;57.478;12.066;2022-08-04T06:30:51;2.30;;;2.08;;
40995;SDS011;26723;57.478;12.066;2022-08-04T06:34:01;3.28;;;2.20;;
40995;SDS011;26723;57.478;12.066;2022-08-04T06:37:11;2.28;;;2.10;;
40995;SDS011;26723;57.478;12.066;2022-08-04T06:40:45;2.22;;;2.08;;
40995;SDS011;26723;57.478;12.066;2022-08-04T06:43:56;2.35;;;2.13;;
40995;SDS011;26723;57.478;12.066;2022-08-04T06:47:08;2.35;;;1.92;;
40995;SDS011;26723;57.478;12.066;2022-08-04T06:50:19;2.17;;;1.88;;
40995;SDS011;26723;57.478;12.066;2022-08-04T06:53:51;2.88;;;1.80;;
40995;SDS011;26723;57.478;12.066;2022-08-04T06:56:59;1.88;;;1.77;;
40995;SDS011;26723;57.478;12.066;2022-08-04T07:00:12;2.00;;;1.70;;
40995;SDS011;26723;57.478;12.066;2022-08-04T07:03:20;1.92;;;1.70;;
40995;SDS011;26723;57.478;12.066;2022-08-04T07:06:30;1.60;;;1.50;;
40995;SDS011;26723;57.478;12.066;2022-08-04T07:09:39;1.75;;;1.63;;
40995;SDS011;26723;57.478;12.066;2022-08-04T07:12:48;1.40;;;1.30;;
40995;SDS011;26723;57.478;12.066;2022-08-04T07:16:05;1.60;;;1.50;;
40995;SDS011;26723;57.478;12.066;2022-08-04T07:19:14;2.83;;;1.45;;
40995;SDS011;26723;57.478;12.066;2022-08-04T07:22:24;1.38;;;1.27;;
40995;SDS011;26723;57.478;12.066;2022-08-04T07:25:34;1.35;;;1.25;;
40995;SDS011;26723;57.478;12.066;2022-08-04T07:29:03;1.33;;;1.23;;
40995;SDS011;26723;57.478;12.066;2022-08-04T07:32:13;0.85;;;0.85;;
40995;SDS011;26723;57.478;12.066;2022-08-04T07:35:24;0.90;;;0.90;;
40995;SDS011;26723;57.478;12.066;2022-08-04T07:38:55;1.75;;;1.20;;
40995;SDS011;26723;57.478;12.066;2022-08-04T07:42:05;1.02;;;1.02;;
40995;SDS011;26723;57.478;12.066;2022-08-04T07:45:16;1.10;;;1.10;;
40995;SDS011;26723;57.478;12.066;2022-08-04T07:48:27;1.15;;;1.10;;
40995;SDS011;26723;57.478;12.066;2022-08-04T07:51:37;1.00;;;1.00;;
40995;SDS011;26723;57.478;12.066;2022-08-04T07:54:47;0.88;;;0.82;;
40995;SDS011;26723;57.478;12.066;2022-08-04T07:57:57;0.90;;;0.90;;
40995;SDS011;26723;57.478;12.066;2022-08-04T08:01:05;1.20;;;1.02;;
40995;SDS011;26723;57.478;12.066;2022-08-04T08:04:17;1.20;;;1.20;;
40995;SDS011;26723;57.478;12.066;2022-08-04T08:07:26;0.80;;;0.80;;
40995;SDS011;26723;57.478;12.066;2022-08-04T08:10:36;1.20;;;1.20;;
40995;SDS011;26723;57.478;12.066;2022-08-04T08:13:45;0.95;;;0.90;;
40995;SDS011;26723;57.478;12.066;2022-08-04T08:16:54;1.00;;;1.00;;
40995;SDS011;26723;57.478;12.066;2022-08-04T08:20:04;1.00;;;1.00;;
40995;SDS011;26723;57.478;12.066;2022-08-04T08:23:14;1.27;;;1.17;;
40995;SDS011;26723;57.478;12.066;2022-08-04T08:26:22;1.20;;;1.08;;
40995;SDS011;26723;57.478;12.066;2022-08-04T08:29:32;1.10;;;1.08;;
40995;SDS011;26723;57.478;12.066;2022-08-04T08:32:41;1.20;;;1.10;;
40995;SDS011;26723;57.478;12.066;2022-08-04T08:35:55;1.13;;;1.10;;
40995;SDS011;26723;57.478;12.066;2022-08-04T08:39:09;2.05;;;1.40;;
40995;SDS011;26723;57.478;12.066;2022-08-04T08:42:36;1.65;;;1.02;;
40995;SDS011;26723;57.478;12.066;2022-08-04T08:54:02;1.75;;;1.17;;
40995;SDS011;26723;57.478;12.066;2022-08-04T08:57:55;1.67;;;1.10;;
40995;SDS011;26723;57.478;12.066;2022-08-04T09:01:32;2.42;;;1.42;;
40995;SDS011;26723;57.478;12.066;2022-08-04T09:05:01;2.03;;;1.20;;
40995;SDS011;26723;57.478;12.066;2022-08-04T09:08:30;1.88;;;1.77;;
40995;SDS011;26723;57.478;12.066;2022-08-04T09:12:11;1.70;;;1.60;;
40995;SDS011;26723;57.478;12.066;2022-08-04T09:15:32;2.97;;;1.70;;
40995;SDS011;26723;57.478;12.066;2022-08-04T09:18:46;1.75;;;1.65;;
40995;SDS011;26723;57.478;12.066;2022-08-04T09:22:00;1.90;;;1.80;;
40995;SDS011;26723;57.478;12.066;2022-08-04T09:25:19;2.72;;;1.83;;
40995;SDS011;26723;57.478;12.066;2022-08-04T09:28:37;1.67;;;1.58;;
40995;SDS011;26723;57.478;12.066;2022-08-04T09:32:02;2.72;;;1.95;;
40995;SDS011;26723;57.478;12.066;2022-08-04T09:35:21;2.80;;;1.60;;
40995;SDS011;26723;57.478;12.066;2022-08-04T09:38:39;1.60;;;1.50;;
40995;SDS011;26723;57.478;12.066;2022-08-04T09:42:00;2.03;;;1.77;;
40995;SDS011;26723;57.478;12.066;2022-08-04T09:45:26;1.95;;;1.75;;
40995;SDS011;26723;57.478;12.066;2022-08-04T09:48:50;2.53;;;1.77;;
40995;SDS011;26723;57.478;12.066;2022-08-04T09:52:06;1.98;;;1.77;;
40995;SDS011;26723;57.478;12.066;2022-08-04T09:55:23;2.13;;;1.92;;
40995;SDS011;26723;57.478;12.066;2022-08-04T09:59:03;1.88;;;1.75;;
40995;SDS011;26723;57.478;12.066;2022-08-04T10:02:24;1.98;;;1.80;;
40995;SDS011;26723;57.478;12.066;2022-08-04T10:05:41;2.17;;;2.05;;
40995;SDS011;26723;57.478;12.066;2022-08-04T10:09:00;2.35;;;1.95;;
40995;SDS011;26723;57.478;12.066;2022-08-04T10:12:27;1.98;;;1.80;;
40995;SDS011;26723;57.478;12.066;2022-08-04T10:15:44;2.40;;;1.98;;
40995;SDS011;26723;57.478;12.066;2022-08-04T10:19:04;1.90;;;1.77;;
40995;SDS011;26723;57.478;12.066;2022-08-04T10:22:24;1.85;;;1.70;;
40995;SDS011;26723;57.478;12.066;2022-08-04T10:26:04;1.73;;;1.60;;
40995;SDS011;26723;57.478;12.066;2022-08-04T10:29:21;2.42;;;1.45;;
40995;SDS011;26723;57.478;12.066;2022-08-04T10:32:34;1.80;;;1.70;;
40995;SDS011;26723;57.478;12.066;2022-08-04T10:35:53;2.10;;;1.90;;
40995;SDS011;26723;57.478;12.066;2022-08-04T10:39:09;1.80;;;1.60;;
40995;SDS011;26723;57.478;12.066;2022-08-04T10:42:41;2.00;;;1.75;;
40995;SDS011;26723;57.478;12.066;2022-08-04T10:46:00;2.28;;;1.70;;
40995;SDS011;26723;57.478;12.066;2022-08-04T10:49:14;2.95;;;1.90;;
40995;SDS011;26723;57.478;12.066;2022-08-04T10:52:31;2.33;;;1.70;;
40995;SDS011;26723;57.478;12.066;2022-08-04T10:55:44;3.00;;;1.75;;
40995;SDS011;26723;57.478;12.066;2022-08-04T10:59:15;2.72;;;1.75;;
40995;SDS011;26723;57.478;12.066;2022-08-04T11:02:30;3.97;;;2.00;;
40995;SDS011;26723;57.478;12.066;2022-08-04T11:05:45;1.83;;;1.73;;
40995;SDS011;26723;57.478;12.066;2022-08-04T11:08:57;2.50;;;1.85;;
40995;SDS011;26723;57.478;12.066;2022-08-04T11:12:09;2.40;;;1.60;;
40995;SDS011;26723;57.478;12.066;2022-08-04T11:15:22;1.60;;;1.40;;
40995;SDS011;26723;57.478;12.066;2022-08-04T11:18:39;1.83;;;1.60;;
40995;SDS011;26723;57.478;12.066;2022-08-04T11:21:55;2.08;;;1.50;;
40995;SDS011;26723;57.478;12.066;2022-08-04T11:25:10;1.48;;;1.38;;
40995;SDS011;26723;57.478;12.066;2022-08-04T11:28:29;2.03;;;1.33;;
40995;SDS011;26723;57.478;12.066;2022-08-04T11:31:47;1.48;;;1.40;;
40995;SDS011;26723;57.478;12.066;2022-08-04T11:34:59;1.30;;;1.20;;
40995;SDS011;26723;57.478;12.066;2022-08-04T11:38:13;1.90;;;1.75;;
40995;SDS011;26723;57.478;12.066;2022-08-04T11:41:38;1.20;;;1.20;;
40995;SDS011;26723;57.478;12.066;2022-08-04T11:44:54;2.10;;;1.42;;
40995;SDS011;26723;57.478;12.066;2022-08-04T11:48:10;1.65;;;1.45;;
40995;SDS011;26723;57.478;12.066;2022-08-04T11:51:24;1.40;;;1.30;;
40995;SDS011;26723;57.478;12.066;2022-08-04T11:54:34;1.50;;;1.40;;
40995;SDS011;26723;57.478;12.066;2022-08-04T11:57:45;1.30;;;1.30;;
40995;SDS011;26723;57.478;12.066;2022-08-04T12:01:02;1.38;;;1.27;;
40995;SDS011;26723;57.478;12.066;2022-08-04T12:04:16;1.77;;;1.48;;
40995;SDS011;26723;57.478;12.066;2022-08-04T12:07:37;1.40;;;1.30;;
40995;SDS011;26723;57.478;12.066;2022-08-04T12:10:54;2.15;;;1.40;;
40995;SDS011;26723;57.478;12.066;2022-08-04T12:14:25;1.77;;;1.40;;
40995;SDS011;26723;57.478;12.066;2022-08-04T12:17:42;1.60;;;1.45;;
40995;SDS011;26723;57.478;12.066;2022-08-04T12:20:59;1.63;;;1.35;;
40995;SDS011;26723;57.478;12.066;2022-08-04T12:24:12;1.40;;;1.30;;
40995;SDS011;26723;57.478;12.066;2022-08-04T12:27:28;1.60;;;1.50;;
40995;SDS011;26723;57.478;12.066;2022-08-04T12:30:42;1.60;;;1.50;;
40995;SDS011;26723;57.478;12.066;2022-08-04T12:34:08;1.20;;;1.20;;
40995;SDS011;26723;57.478;12.066;2022-08-04T12:37:25;1.30;;;1.30;;
40995;SDS011;26723;57.478;12.066;2022-08-04T12:40:41;1.45;;;1.35;;
40995;SDS011;26723;57.478;12.066;2022-08-04T12:43:53;2.20;;;1.40;;
40995;SDS011;26723;57.478;12.066;2022-08-04T12:47:04;1.60;;;1.50;;
40995;SDS011;26723;57.478;12.066;2022-08-04T12:50:34;1.10;;;1.10;;
40995;SDS011;26723;57.478;12.066;2022-08-04T12:53:43;2.95;;;1.48;;
40995;SDS011;26723;57.478;12.066;2022-08-04T12:56:57;1.48;;;1.38;;
40995;SDS011;26723;57.478;12.066;2022-08-04T13:00:08;1.40;;;1.38;;
40995;SDS011;26723;57.478;12.066;2022-08-04T13:03:18;1.30;;;1.30;;
40995;SDS011;26723;57.478;12.066;2022-08-04T13:06:30;1.58;;;1.30;;
40995;SDS011;26723;57.478;12.066;2022-08-04T13:09:40;2.22;;;1.30;;
40995;SDS011;26723;57.478;12.066;2022-08-04T13:12:50;1.13;;;1.10;;
40995;SDS011;26723;57.478;12.066;2022-08-04T13:16:03;1.30;;;1.20;;
40995;SDS011;26723;57.478;12.066;2022-08-04T13:19:19;1.40;;;1.30;;
40995;SDS011;26723;57.478;12.066;2022-08-04T13:22:28;1.50;;;1.10;;
40995;SDS011;26723;57.478;12.066;2022-08-04T13:25:39;1.13;;;1.13;;
40995;SDS011;26723;57.478;12.066;2022-08-04T13:29:09;1.33;;;1.15;;
40995;SDS011;26723;57.478;12.066;2022-08-04T13:32:22;2.38;;;1.42;;
40995;SDS011;26723;57.478;12.066;2022-08-04T13:35:33;1.45;;;1.30;;
40995;SDS011;26723;57.478;12.066;2022-08-04T13:39:03;1.60;;;1.50;;
40995;SDS011;26723;57.478;12.066;2022-08-04T13:42:14;1.45;;;1.35;;
40995;SDS011;26723;57.478;12.066;2022-08-04T13:45:23;1.42;;;1.33;;
40995;SDS011;26723;57.478;12.066;2022-08-04T13:48:40;1.77;;;1.30;;
40995;SDS011;26723;57.478;12.066;2022-08-04T13:52:11;1.60;;;1.50;;
40995;SDS011;26723;57.478;12.066;2022-08-04T13:55:21;1.30;;;1.30;;
40995;SDS011;26723;57.478;12.066;2022-08-04T13:58:31;1.17;;;1.17;;
40995;SDS011;26723;57.478;12.066;2022-08-04T14:01:54;1.98;;;1.38;;
40995;SDS011;26723;57.478;12.066;2022-08-04T14:05:12;2.28;;;1.35;;
40995;SDS011;26723;57.478;12.066;2022-08-04T14:08:25;2.55;;;1.65;;
40995;SDS011;26723;57.478;12.066;2022-08-04T14:11:37;1.33;;;1.33;;
40995;SDS011;26723;57.478;12.066;2022-08-04T14:15:07;1.15;;;1.05;;
40995;SDS011;26723;57.478;12.066;2022-08-04T14:18:57;4.35;;;2.88;;
40995;SDS011;26723;57.478;12.066;2022-08-04T14:22:07;2.58;;;1.23;;
40995;SDS011;26723;57.478;12.066;2022-08-04T14:25:21;1.23;;;1.13;;
40995;SDS011;26723;57.478;12.066;2022-08-04T14:28:41;1.40;;;1.30;;
40995;SDS011;26723;57.478;12.066;2022-08-04T14:32:09;2.65;;;1.45;;
40995;SDS011;26723;57.478;12.066;2022-08-04T14:35:31;1.42;;;1.23;;
40995;SDS011;26723;57.478;12.066;2022-08-04T14:38:58;3.35;;;1.60;;
40995;SDS011;26723;57.478;12.066;2022-08-04T14:42:08;4.28;;;1.55;;
40995;SDS011;26723;57.478;12.066;2022-08-04T14:45:16;2.67;;;1.92;;
40995;SDS011;26723;57.478;12.066;2022-08-04T14:48:26;3.60;;;1.58;;
40995;SDS011;26723;57.478;12.066;2022-08-04T14:51:35;2.95;;;1.30;;
40995;SDS011;26723;57.478;12.066;2022-08-04T14:54:45;1.83;;;1.27;;
40995;SDS011;26723;57.478;12.066;2022-08-04T14:57:55;1.75;;;1.05;;
40995;SDS011;26723;57.478;12.066;2022-08-04T15:01:23;0.93;;;0.90;;
40995;SDS011;26723;57.478;12.066;2022-08-04T15:04:32;2.67;;;0.80;;
40995;SDS011;26723;57.478;12.066;2022-08-04T15:07:40;1.17;;;0.60;;
40995;SDS011;26723;57.478;12.066;2022-08-04T15:10:49;0.80;;;0.80;;
40995;SDS011;26723;57.478;12.066;2022-08-04T15:13:59;0.47;;;0.47;;
40995;SDS011;26723;57.478;12.066;2022-08-04T15:17:08;0.65;;;0.40;;
40995;SDS011;26723;57.478;12.066;2022-08-04T15:20:36;1.23;;;0.90;;
40995;SDS011;26723;57.478;12.066;2022-08-04T15:23:45;2.03;;;0.55;;
40995;SDS011;26723;57.478;12.066;2022-08-04T15:26:54;0.60;;;0.60;;
40995;SDS011;26723;57.478;12.066;2022-08-04T15:30:11;0.60;;;0.60;;
40995;SDS011;26723;57.478;12.066;2022-08-04T15:33:21;1.40;;;0.90;;
40995;SDS011;26723;57.478;12.066;2022-08-04T15:36:42;1.20;;;0.60;;
40995;SDS011;26723;57.478;12.066;2022-08-04T15:40:03;1.67;;;0.80;;
40995;SDS011;26723;57.478;12.066;2022-08-04T15:43:21;0.98;;;0.88;;
40995;SDS011;26723;57.478;12.066;2022-08-04T15:47:12;1.17;;;0.75;;
40995;SDS011;26723;57.478;12.066;2022-08-04T15:50:21;1.10;;;0.73;;
40995;SDS011;26723;57.478;12.066;2022-08-04T16:01:12;2.90;;;1.80;;
40995;SDS011;26723;57.478;12.066;2022-08-04T16:04:23;1.50;;;0.93;;
40995;SDS011;26723;57.478;12.066;2022-08-04T16:10:59;1.10;;;1.00;;
40995;SDS011;26723;57.478;12.066;2022-08-04T16:14:08;1.02;;;0.93;;
40995;SDS011;26723;57.478;12.066;2022-08-04T16:17:17;1.67;;;1.05;;
40995;SDS011;26723;57.478;12.066;2022-08-04T16:20:27;1.23;;;0.88;;
40995;SDS011;26723;57.478;12.066;2022-08-04T16:23:46;1.27;;;1.17;;
40995;SDS011;26723;57.478;12.066;2022-08-04T16:27:11;2.22;;;1.38;;
40995;SDS011;26723;57.478;12.066;2022-08-04T16:30:25;1.45;;;1.23;;
40995;SDS011;26723;57.478;12.066;2022-08-04T16:33:33;1.30;;;1.20;;
40995;SDS011;26723;57.478;12.066;2022-08-04T16:36:57;3.17;;;1.50;;
40995;SDS011;26723;57.478;12.066;2022-08-04T16:43:42;1.88;;;1.30;;
40995;SDS011;26723;57.478;12.066;2022-08-04T16:46:50;0.93;;;0.93;;
40995;SDS011;26723;57.478;12.066;2022-08-04T16:50:19;1.52;;;1.05;;
40995;SDS011;26723;57.478;12.066;2022-08-04T16:53:32;2.72;;;1.40;;
40995;SDS011;26723;57.478;12.066;2022-08-04T16:56:59;2.35;;;1.23;;
40995;SDS011;26723;57.478;12.066;2022-08-04T17:00:14;1.35;;;1.20;;
40995;SDS011;26723;57.478;12.066;2022-08-04T17:03:23;1.67;;;1.20;;
40995;SDS011;26723;57.478;12.066;2022-08-04T17:06:32;1.50;;;1.00;;
40995;SDS011;26723;57.478;12.066;2022-08-04T17:09:49;1.98;;;1.20;;
40995;SDS011;26723;57.478;12.066;2022-08-04T17:12:58;1.33;;;1.02;;
40995;SDS011;26723;57.478;12.066;2022-08-04T17:16:27;2.95;;;1.80;;
40995;SDS011;26723;57.478;12.066;2022-08-04T17:19:35;2.13;;;1.23;;
40995;SDS011;26723;57.478;12.066;2022-08-04T17:22:44;1.63;;;1.30;;
40995;SDS011;26723;57.478;12.066;2022-08-04T17:25:54;2.75;;;1.13;;
40995;SDS011;26723;57.478;12.066;2022-08-04T17:29:04;1.20;;;1.10;;
40995;SDS011;26723;57.478;12.066;2022-08-04T17:32:14;2.50;;;1.35;;
40995;SDS011;26723;57.478;12.066;2022-08-04T17:35:25;3.65;;;1.50;;
40995;SDS011;26723;57.478;12.066;2022-08-04T17:38:45;2.83;;;1.15;;
40995;SDS011;26723;57.478;12.066;2022-08-04T17:41:58;2.10;;;1.50;;
40995;SDS011;26723;57.478;12.066;2022-08-04T17:45:06;4.32;;;1.50;;
40995;SDS011;26723;57.478;12.066;2022-08-04T17:48:36;1.50;;;1.30;;
40995;SDS011;26723;57.478;12.066;2022-08-04T17:51:48;2.17;;;1.52;;
40995;SDS011;26723;57.478;12.066;2022-08-04T17:55:15;1.50;;;1.40;;
40995;SDS011;26723;57.478;12.066;2022-08-04T17:58:27;1.48;;;1.38;;
40995;SDS011;26723;57.478;12.066;2022-08-04T18:01:39;2.00;;;1.55;;
40995;SDS011;26723;57.478;12.066;2022-08-04T18:04:57;2.17;;;1.38;;
40995;SDS011;26723;57.478;12.066;2022-08-04T18:08:17;2.00;;;1.30;;
40995;SDS011;26723;57.478;12.066;2022-08-04T18:11:50;1.33;;;1.23;;
40995;SDS011;26723;57.478;12.066;2022-08-04T18:15:05;2.30;;;1.50;;
40995;SDS011;26723;57.478;12.066;2022-08-04T18:18:17;2.03;;;1.70;;
40995;SDS011;26723;57.478;12.066;2022-08-04T18:21:29;2.85;;;1.70;;
40995;SDS011;26723;57.478;12.066;2022-08-04T18:24:51;3.88;;;1.55;;
40995;SDS011;26723;57.478;12.066;2022-08-04T18:28:03;2.00;;;1.45;;
40995;SDS011;26723;57.478;12.066;2022-08-04T18:31:21;1.60;;;1.42;;
40995;SDS011;26723;57.478;12.066;2022-08-04T18:34:33;2.85;;;1.73;;
40995;SDS011;26723;57.478;12.066;2022-08-04T18:37:46;6.07;;;2.10;;
40995;SDS011;26723;57.478;12.066;2022-08-04T18:41:13;3.53;;;1.88;;
40995;SDS011;26723;57.478;12.066;2022-08-04T18:44:22;3.55;;;1.70;;
40995;SDS011;26723;57.478;12.066;2022-08-04T18:47:34;2.08;;;1.75;;
40995;SDS011;26723;57.478;12.066;2022-08-04T18:51:03;2.25;;;1.90;;
40995;SDS011;26723;57.478;12.066;2022-08-04T18:54:28;3.00;;;2.45;;
40995;SDS011;26723;57.478;12.066;2022-08-04T18:57:37;1.85;;;1.73;;
40995;SDS011;26723;57.478;12.066;2022-08-04T19:01:05;2.13;;;1.98;;
40995;SDS011;26723;57.478;12.066;2022-08-04T19:04:20;2.75;;;1.92;;
40995;SDS011;26723;57.478;12.066;2022-08-04T19:07:42;2.33;;;1.73;;
40995;SDS011;26723;57.478;12.066;2022-08-04T19:11:10;6.20;;;2.40;;
40995;SDS011;26723;57.478;12.066;2022-08-04T19:14:39;2.22;;;2.05;;
40995;SDS011;26723;57.478;12.066;2022-08-04T19:17:47;3.15;;;1.77;;
40995;SDS011;26723;57.478;12.066;2022-08-04T19:21:04;3.22;;;2.20;;
40995;SDS011;26723;57.478;12.066;2022-08-04T19:24:12;2.95;;;2.08;;
40995;SDS011;26723;57.478;12.066;2022-08-04T19:27:40;4.47;;;2.20;;
40995;SDS011;26723;57.478;12.066;2022-08-04T19:30:48;2.67;;;2.00;;
40995;SDS011;26723;57.478;12.066;2022-08-04T19:33:56;3.42;;;2.05;;
40995;SDS011;26723;57.478;12.066;2022-08-04T19:37:11;3.05;;;1.83;;
40995;SDS011;26723;57.478;12.066;2022-08-04T19:40:40;2.75;;;2.20;;
40995;SDS011;26723;57.478;12.066;2022-08-04T19:43:57;3.40;;;2.00;;
40995;SDS011;26723;57.478;12.066;2022-08-04T19:47:06;2.58;;;2.38;;
40995;SDS011;26723;57.478;12.066;2022-08-04T19:50:34;2.50;;;2.20;;
40995;SDS011;26723;57.478;12.066;2022-08-04T19:53:44;2.53;;;2.05;;
40995;SDS011;26723;57.478;12.066;2022-08-04T19:56:53;2.72;;;2.50;;
40995;SDS011;26723;57.478;12.066;2022-08-04T20:00:01;5.32;;;2.55;;
40995;SDS011;26723;57.478;12.066;2022-08-04T20:03:15;4.00;;;2.58;;
40995;SDS011;26723;57.478;12.066;2022-08-04T20:06:26;3.50;;;2.67;;
40995;SDS011;26723;57.478;12.066;2022-08-04T20:09:36;2.78;;;2.35;;
40995;SDS011;26723;57.478;12.066;2022-08-04T20:12:44;6.97;;;3.45;;
40995;SDS011;26723;57.478;12.066;2022-08-04T20:16:01;2.92;;;2.30;;
40995;SDS011;26723;57.478;12.066;2022-08-04T20:19:09;4.40;;;2.67;;
40995;SDS011;26723;57.478;12.066;2022-08-04T20:22:19;4.63;;;2.40;;
40995;SDS011;26723;57.478;12.066;2022-08-04T20:25:49;3.72;;;2.58;;
40995;SDS011;26723;57.478;12.066;2022-08-04T20:28:58;2.80;;;2.60;;
40995;SDS011;26723;57.478;12.066;2022-08-04T20:32:06;2.95;;;2.53;;
40995;SDS011;26723;57.478;12.066;2022-08-04T20:35:15;2.63;;;2.38;;
40995;SDS011;26723;57.478;12.066;2022-08-04T20:38:24;2.38;;;2.17;;
40995;SDS011;26723;57.478;12.066;2022-08-04T20:41:40;2.75;;;2.00;;
40995;SDS011;26723;57.478;12.066;2022-08-04T20:44:50;3.20;;;2.42;;
40995;SDS011;26723;57.478;12.066;2022-08-04T20:47:58;2.40;;;2.20;;
40995;SDS011;26723;57.478;12.066;2022-08-04T20:51:06;2.35;;;2.15;;
40995;SDS011;26723;57.478;12.066;2022-08-04T20:54:14;2.28;;;2.10;;
40995;SDS011;26723;57.478;12.066;2022-08-04T20:57:33;2.60;;;2.30;;
40995;SDS011;26723;57.478;12.066;2022-08-04T21:00:54;2.30;;;2.10;;
40995;SDS011;26723;57.478;12.066;2022-08-04T21:04:02;2.40;;;2.20;;
40995;SDS011;26723;57.478;12.066;2022-08-04T21:07:34;2.30;;;2.10;;
40995;SDS011;26723;57.478;12.066;2022-08-04T21:10:49;2.10;;;2.00;;
40995;SDS011;26723;57.478;12.066;2022-08-04T21:13:59;2.33;;;2.13;;
40995;SDS011;26723;57.478;12.066;2022-08-04T21:17:10;2.33;;;2.13;;
40995;SDS011;26723;57.478;12.066;2022-08-04T21:20:22;2.47;;;2.28;;
40995;SDS011;26723;57.478;12.066;2022-08-04T21:23:33;2.88;;;2.17;;